Time;durP1;ratioP1;P1;durP2;ratioP2;P2;SDS_P1;SDS_P2;PMS_P1;PMS_P2;Temp;Humidity;BMP_temperature;BMP_pressure;BME280_temperature;BME280_humidity;BME280_pressure;Samples;Min_cycle;Max_cycle;Signal;HPM_P1;HPM_P2
2020/12/18 00:02:18;;;;;;;;;;;21.60;51.60;;;;;;5055346;28;1284;-61
2020/12/18 00:04:46;;;;;;;;;;;21.50;51.60;;;;;;5054428;28;1303;-61
2020/12/18 00:07:11;;;;;;;;;;;21.50;51.60;;;;;;5037174;28;1331;-58
2020/12/18 00:09:37;;;;;;;;;;;21.50;51.70;;;;;;5055137;28;1643;-58
2020/12/18 00:12:02;;;;;;;;;;;21.50;51.70;;;;;;5055014;28;1367;-61
2020/12/18 00:14:28;;;;;;;;;;;21.50;51.70;;;;;;5055032;28;1288;-59
2020/12/18 00:16:53;;;;;;;;;;;21.40;51.70;;;;;;5055059;28;1339;-61
2020/12/18 00:19:19;;;;;;;;;;;21.40;51.70;;;;;;5051655;28;1119;-61
2020/12/18 00:21:44;;;;;;;;;;;21.40;51.80;;;;;;5034813;28;1977;-58
2020/12/18 00:24:09;;;;;;;;;;;21.40;51.80;;;;;;5054792;28;1356;-61
2020/12/18 00:26:35;;;;;;;;;;;21.40;51.90;;;;;;5054525;28;1709;-60
2020/12/18 00:29:01;;;;;;;;;;;21.40;51.90;;;;;;5036846;28;1088;-61
2020/12/18 00:31:27;;;;;;;;;;;21.40;51.90;;;;;;5054848;28;1326;-61
2020/12/18 00:33:52;;;;;;;;;;;21.30;52.00;;;;;;5053920;28;1349;-57
2020/12/18 00:36:18;;;;;;;;;;;21.30;52.00;;;;;;5036225;28;1300;-61
2020/12/18 00:38:43;;;;;;;;;;;21.30;52.00;;;;;;5036023;28;1477;-60
2020/12/18 00:41:11;;;;;;;;;;;21.30;52.00;;;;;;5054494;28;1902;-61
2020/12/18 00:43:36;;;;;;;;;;;21.30;52.10;;;;;;5036513;28;1394;-61
2020/12/18 00:46:05;;;;;;;;;;;21.30;52.10;;;;;;5053607;28;1361;-61
2020/12/18 00:48:30;;;;;;;;;;;21.30;52.20;;;;;;5054152;28;1413;-61
2020/12/18 00:50:56;;;;;;;;;;;21.20;52.20;;;;;;5040869;28;1084;-61
2020/12/18 00:53:21;;;;;;;;;;;21.20;52.20;;;;;;5036038;28;1347;-59
2020/12/18 00:55:47;;;;;;;;;;;21.20;52.20;;;;;;5046856;28;1068;-59
2020/12/18 00:58:12;;;;;;;;;;;21.20;52.30;;;;;;5019863;28;1288;-61
2020/12/18 01:00:37;;;;;;;;;;;21.20;52.30;;;;;;5053773;28;1906;-61
2020/12/18 01:03:03;;;;;;;;;;;21.20;52.40;;;;;;5053948;28;1391;-61
2020/12/18 01:05:28;;;;;;;;;;;21.20;52.40;;;;;;5053609;28;1162;-60
2020/12/18 01:07:54;;;;;;;;;;;21.20;52.50;;;;;;5053737;28;1465;-60
2020/12/18 01:10:19;;;;;;;;;;;21.10;52.40;;;;;;5053972;28;1100;-58
2020/12/18 01:12:48;;;;;;;;;;;21.10;52.50;;;;;;5053775;28;1315;-60
2020/12/18 01:15:14;;;;;;;;;;;21.10;52.50;;;;;;5053022;28;1367;-62
2020/12/18 01:17:39;;;;;;;;;;;21.10;52.50;;;;;;5035569;28;1331;-61
2020/12/18 01:20:05;;;;;;;;;;;21.10;52.60;;;;;;5026252;28;1910;-60
2020/12/18 01:22:30;;;;;;;;;;;21.10;52.60;;;;;;5033678;28;1171;-64
2020/12/18 01:24:55;;;;;;;;;;;21.10;52.60;;;;;;5034235;28;1169;-64
2020/12/18 01:27:21;;;;;;;;;;;21.10;52.70;;;;;;5033846;28;1321;-63
2020/12/18 01:29:46;;;;;;;;;;;21.00;52.70;;;;;;5034519;28;1077;-64
2020/12/18 01:32:12;;;;;;;;;;;21.10;52.80;;;;;;5034405;28;1364;-64
2020/12/18 01:34:38;;;;;;;;;;;21.00;52.70;;;;;;5034150;28;1096;-64
2020/12/18 01:37:04;;;;;;;;;;;21.00;52.80;;;;;;5034124;28;1331;-63
2020/12/18 01:39:29;;;;;;;;;;;21.00;52.80;;;;;;5000108;28;1404;-63
2020/12/18 01:41:55;;;;;;;;;;;21.00;52.80;;;;;;5015998;28;1894;-63
2020/12/18 01:44:20;;;;;;;;;;;21.00;52.90;;;;;;5015679;28;1371;-64
2020/12/18 01:46:46;;;;;;;;;;;21.00;52.90;;;;;;5033693;28;1299;-63
2020/12/18 01:49:11;;;;;;;;;;;21.00;52.90;;;;;;5016225;28;1395;-63
2020/12/18 01:51:37;;;;;;;;;;;21.00;53.00;;;;;;5032875;28;1108;-63
2020/12/18 01:54:02;;;;;;;;;;;21.00;53.00;;;;;;5032060;28;1373;-63
2020/12/18 01:56:28;;;;;;;;;;;21.00;53.00;;;;;;5043111;28;1298;-64
2020/12/18 01:58:53;;;;;;;;;;;20.90;53.00;;;;;;5053246;28;1155;-63
2020/12/18 02:01:19;;;;;;;;;;;20.90;53.00;;;;;;5052312;28;1898;-63
2020/12/18 02:03:44;;;;;;;;;;;20.90;53.10;;;;;;5035535;28;1382;-64
2020/12/18 02:06:11;;;;;;;;;;;20.90;53.00;;;;;;5053007;28;1370;-63
2020/12/18 02:08:37;;;;;;;;;;;20.90;53.10;;;;;;5052008;28;1485;-64
2020/12/18 02:11:02;;;;;;;;;;;20.90;53.10;;;;;;5052686;28;1325;-63
2020/12/18 02:13:28;;;;;;;;;;;20.90;53.10;;;;;;5053416;28;1299;-64
2020/12/18 02:15:53;;;;;;;;;;;20.90;53.20;;;;;;5036039;28;1330;-63
2020/12/18 02:18:19;;;;;;;;;;;20.90;53.20;;;;;;5072862;28;1356;-64
2020/12/18 02:20:44;;;;;;;;;;;20.90;53.20;;;;;;5040044;28;1910;-63
2020/12/18 02:23:10;;;;;;;;;;;20.90;53.20;;;;;;5053261;28;1352;-63
2020/12/18 02:25:37;;;;;;;;;;;20.80;53.30;;;;;;5035050;28;1156;-63
2020/12/18 02:28:03;;;;;;;;;;;20.80;53.30;;;;;;5051480;28;1410;-64
2020/12/18 02:30:28;;;;;;;;;;;20.80;53.30;;;;;;5052847;28;1170;-63
2020/12/18 02:32:54;;;;;;;;;;;20.80;53.30;;;;;;5052920;28;1370;-63
2020/12/18 02:35:19;;;;;;;;;;;20.80;53.30;;;;;;5051682;28;1291;-64
2020/12/18 02:37:45;;;;;;;;;;;20.80;53.30;;;;;;5052653;28;1307;-64
2020/12/18 02:40:10;;;;;;;;;;;20.80;53.40;;;;;;5051737;28;1898;-63
2020/12/18 02:42:36;;;;;;;;;;;20.80;53.40;;;;;;5052871;28;1660;-63
2020/12/18 02:45:01;;;;;;;;;;;20.80;53.40;;;;;;5034659;28;1343;-63
2020/12/18 02:47:27;;;;;;;;;;;20.80;53.40;;;;;;5052510;28;1382;-64
2020/12/18 02:49:52;;;;;;;;;;;20.80;53.40;;;;;;5053040;28;1245;-64
2020/12/18 02:52:18;;;;;;;;;;;20.80;53.50;;;;;;5052357;28;1359;-64
2020/12/18 02:54:43;;;;;;;;;;;20.80;53.50;;;;;;5052280;28;1339;-63
2020/12/18 02:57:08;;;;;;;;;;;20.80;53.50;;;;;;5053025;28;1695;-64
2020/12/18 02:59:34;;;;;;;;;;;20.70;53.50;;;;;;5052650;28;1229;-63
2020/12/18 03:01:59;;;;;;;;;;;20.80;53.50;;;;;;5055953;28;1899;-64
2020/12/18 03:04:25;;;;;;;;;;;20.70;53.50;;;;;;5055876;28;1331;-64
2020/12/18 03:06:50;;;;;;;;;;;20.70;53.50;;;;;;5056443;28;1280;-63
2020/12/18 03:09:16;;;;;;;;;;;20.70;53.50;;;;;;5056268;28;1291;-63
2020/12/18 03:11:42;;;;;;;;;;;20.70;53.50;;;;;;5054861;28;1266;-63
2020/12/18 03:14:08;;;;;;;;;;;20.70;53.60;;;;;;5055034;28;1135;-63
2020/12/18 03:16:37;;;;;;;;;;;20.70;53.60;;;;;;5054894;28;1694;-63
2020/12/18 03:19:03;;;;;;;;;;;20.70;53.60;;;;;;5054564;28;1159;-63
2020/12/18 03:21:28;;;;;;;;;;;20.70;53.60;;;;;;5038427;28;1874;-62
2020/12/18 03:23:54;;;;;;;;;;;20.70;53.60;;;;;;5055970;28;1271;-64
2020/12/18 03:26:20;;;;;;;;;;;20.70;53.70;;;;;;5054166;28;1335;-63
2020/12/18 03:28:46;;;;;;;;;;;20.70;53.70;;;;;;5054879;28;1359;-64
2020/12/18 03:31:11;;;;;;;;;;;20.70;53.70;;;;;;5055170;28;1108;-64
2020/12/18 03:33:37;;;;;;;;;;;20.60;53.70;;;;;;5054850;28;1352;-63
2020/12/18 03:36:02;;;;;;;;;;;20.60;53.60;;;;;;5054706;28;1357;-64
2020/12/18 03:38:27;;;;;;;;;;;20.70;53.70;;;;;;5057545;28;1092;-64
2020/12/18 03:40:53;;;;;;;;;;;20.70;53.80;;;;;;5056136;28;1902;-63
2020/12/18 03:43:18;;;;;;;;;;;20.60;53.70;;;;;;5038349;28;1332;-64
2020/12/18 03:45:44;;;;;;;;;;;20.60;53.70;;;;;;5055774;28;1288;-64
2020/12/18 03:48:09;;;;;;;;;;;20.70;53.80;;;;;;5056130;28;1407;-63
2020/12/18 03:50:35;;;;;;;;;;;20.70;53.80;;;;;;5055955;28;1202;-64
2020/12/18 03:53:00;;;;;;;;;;;20.60;53.80;;;;;;5056101;28;1342;-63
2020/12/18 03:55:26;;;;;;;;;;;20.60;53.80;;;;;;5055689;28;1283;-63
2020/12/18 03:57:51;;;;;;;;;;;20.60;53.80;;;;;;5055659;28;1307;-63
2020/12/18 04:00:16;;;;;;;;;;;20.60;53.80;;;;;;5056008;28;1965;-64
2020/12/18 04:02:42;;;;;;;;;;;20.60;53.80;;;;;;5055885;28;1100;-64
2020/12/18 04:05:07;;;;;;;;;;;20.60;53.80;;;;;;5053470;28;1084;-63
2020/12/18 04:07:33;;;;;;;;;;;20.60;53.80;;;;;;5055855;28;1217;-64
2020/12/18 04:09:58;;;;;;;;;;;20.60;53.80;;;;;;5055718;28;1153;-64
2020/12/18 04:12:24;;;;;;;;;;;20.60;53.80;;;;;;5053772;28;1303;-63
2020/12/18 04:14:49;;;;;;;;;;;20.70;53.70;;;;;;5054122;28;1395;-64
2020/12/18 04:17:15;;;;;;;;;;;20.70;53.70;;;;;;5055079;28;1294;-65
2020/12/18 04:19:41;;;;;;;;;;;20.70;53.60;;;;;;5049128;28;1360;-63
2020/12/18 04:22:06;;;;;;;;;;;20.80;53.50;;;;;;5055608;28;1906;-63
2020/12/18 04:24:32;;;;;;;;;;;20.90;53.40;;;;;;5055119;28;1356;-64
2020/12/18 04:26:57;;;;;;;;;;;21.00;53.20;;;;;;5055157;28;1308;-64
2020/12/18 04:29:22;;;;;;;;;;;21.00;53.00;;;;;;5054927;28;1331;-64
2020/12/18 04:31:48;;;;;;;;;;;21.20;52.80;;;;;;5055567;28;1257;-63
2020/12/18 04:34:13;;;;;;;;;;;21.20;52.60;;;;;;5054853;28;1414;-64
2020/12/18 04:36:39;;;;;;;;;;;21.30;52.50;;;;;;5054874;28;1288;-63
2020/12/18 04:39:05;;;;;;;;;;;21.40;52.30;;;;;;5055373;28;1377;-64
2020/12/18 04:41:30;;;;;;;;;;;21.50;52.20;;;;;;5055076;28;1906;-63
2020/12/18 04:43:56;;;;;;;;;;;21.50;51.90;;;;;;5055224;28;1283;-64
2020/12/18 04:46:21;;;;;;;;;;;21.60;51.80;;;;;;5036787;28;1280;-64
2020/12/18 04:48:47;;;;;;;;;;;21.70;51.70;;;;;;5055336;28;1276;-64
2020/12/18 04:51:16;;;;;;;;;;;21.70;51.60;;;;;;5023935;28;1183;-64
2020/12/18 04:53:41;;;;;;;;;;;21.70;51.50;;;;;;5036506;28;1347;-64
2020/12/18 04:56:10;;;;;;;;;;;21.80;51.40;;;;;;5029759;28;1283;-64
2020/12/18 04:58:38;;;;;;;;;;;21.80;51.40;;;;;;5036901;28;1128;-64
2020/12/18 05:01:04;;;;;;;;;;;21.90;51.30;;;;;;5054646;28;1973;-64
2020/12/18 05:03:31;;;;;;;;;;;21.90;51.80;;;;;;5036220;28;1369;-64
2020/12/18 05:05:59;;;;;;;;;;;21.90;51.10;;;;;;5036248;28;1076;-64
2020/12/18 05:08:25;;;;;;;;;;;22.00;51.60;;;;;;5053195;28;1285;-64
2020/12/18 05:10:51;;;;;;;;;;;22.00;51.00;;;;;;5036548;28;1448;-63
2020/12/18 05:13:16;;;;;;;;;;;22.10;51.00;;;;;;5054165;28;1406;-64
2020/12/18 05:15:42;;;;;;;;;;;22.10;51.00;;;;;;5054224;28;1140;-64
2020/12/18 05:18:07;;;;;;;;;;;22.10;50.90;;;;;;5053636;28;1247;-63
2020/12/18 05:20:33;;;;;;;;;;;22.10;50.90;;;;;;5048458;28;1901;-63
2020/12/18 05:22:58;;;;;;;;;;;22.10;50.80;;;;;;5053238;28;1068;-64
2020/12/18 05:25:24;;;;;;;;;;;22.20;50.80;;;;;;5053552;28;1174;-63
2020/12/18 05:27:49;;;;;;;;;;;22.20;50.80;;;;;;5053521;28;1338;-63
2020/12/18 05:30:19;;;;;;;;;;;22.20;50.70;;;;;;5053543;28;1406;-64
2020/12/18 05:32:47;;;;;;;;;;;22.20;50.70;;;;;;5053376;28;1548;-63
2020/12/18 05:35:13;;;;;;;;;;;22.20;50.70;;;;;;5035517;28;1443;-63
2020/12/18 05:37:38;;;;;;;;;;;22.30;50.70;;;;;;5035771;28;1456;-64
2020/12/18 05:40:04;;;;;;;;;;;22.30;50.70;;;;;;5035997;28;1907;-64
2020/12/18 05:42:38;;;;;;;;;;;22.20;50.60;;;;;;5053799;28;1372;-63
2020/12/18 05:45:14;;;;;;;;;;;22.30;50.60;;;;;;5054042;28;1076;-63
2020/12/18 05:47:53;;;;;;;;;;;22.30;50.60;;;;;;5036269;28;1354;-64
2020/12/18 05:50:18;;;;;;;;;;;22.30;50.60;;;;;;5023768;28;1230;-63
2020/12/18 05:52:52;;;;;;;;;;;22.30;50.60;;;;;;5032879;28;1413;-63
2020/12/18 05:55:18;;;;;;;;;;;22.30;50.60;;;;;;5032096;28;1311;-63
2020/12/18 05:57:43;;;;;;;;;;;22.30;50.60;;;;;;5035680;28;1224;-64
2020/12/18 06:00:09;;;;;;;;;;;22.30;50.60;;;;;;5036206;28;1914;-64
2020/12/18 06:02:34;;;;;;;;;;;22.30;50.60;;;;;;5035906;28;1192;-64
2020/12/18 06:05:00;;;;;;;;;;;22.30;50.60;;;;;;5035407;28;1313;-63
2020/12/18 06:07:25;;;;;;;;;;;22.30;50.60;;;;;;5035538;28;1401;-63
2020/12/18 06:09:51;;;;;;;;;;;22.30;50.70;;;;;;5053391;28;1415;-63
2020/12/18 06:12:16;;;;;;;;;;;22.30;50.70;;;;;;5023993;28;1854;-63
2020/12/18 06:14:42;;;;;;;;;;;22.30;50.70;;;;;;5026553;28;907;-64
2020/12/18 06:17:08;;;;;;;;;;;22.30;50.80;;;;;;5060923;28;1341;-64
2020/12/18 06:19:40;;;;;;;;;;;22.30;50.80;;;;;;5064974;28;1423;-64
2020/12/18 06:22:10;;;;;;;;;;;22.20;50.80;;;;;;5054418;28;1914;-63
2020/12/18 06:24:36;;;;;;;;;;;22.20;50.90;;;;;;5061262;28;1343;-63
2020/12/18 06:27:01;;;;;;;;;;;22.20;51.00;;;;;;5069586;28;1389;-63
2020/12/18 06:29:26;;;;;;;;;;;22.20;51.10;;;;;;5070674;28;1653;-63
2020/12/18 06:31:52;;;;;;;;;;;22.20;51.00;;;;;;5071078;28;1429;-63
2020/12/18 06:34:24;;;;;;;;;;;22.20;51.10;;;;;;5069591;28;1309;-64
2020/12/18 06:36:51;;;;;;;;;;;22.10;51.10;;;;;;5067977;28;1298;-64
2020/12/18 06:39:19;;;;;;;;;;;22.10;51.10;;;;;;5052414;28;1334;-64
2020/12/18 06:41:45;;;;;;;;;;;22.10;51.20;;;;;;5071438;28;1926;-62
2020/12/18 06:44:29;;;;;;;;;;;22.10;51.20;;;;;;5071206;28;1283;-65
2020/12/18 06:47:13;;;;;;;;;;;22.10;51.30;;;;;;5063894;28;1262;-63
2020/12/18 06:49:57;;;;;;;;;;;22.10;51.30;;;;;;5064874;28;1169;-63
2020/12/18 06:52:42;;;;;;;;;;;22.10;51.40;;;;;;5048920;28;2102;-65
2020/12/18 06:55:08;;;;;;;;;;;22.00;51.40;;;;;;5046103;28;935;-64
2020/12/18 06:57:33;;;;;;;;;;;22.00;51.40;;;;;;5034598;28;1395;-64
2020/12/18 07:00:18;;;;;;;;;;;21.90;48.40;;;;;;5053951;28;1914;-64
2020/12/18 07:02:43;;;;;;;;;;;21.90;47.20;;;;;;5054152;28;1340;-64
2020/12/18 07:05:27;;;;;;;;;;;21.70;44.60;;;;;;5052763;28;1319;-65
2020/12/18 07:07:53;;;;;;;;;;;21.70;46.10;;;;;;5051738;28;1360;-64
2020/12/18 07:10:19;;;;;;;;;;;21.60;47.20;;;;;;5053265;28;1355;-64
2020/12/18 07:12:48;;;;;;;;;;;21.60;47.50;;;;;;5052675;28;2056;-63
2020/12/18 07:15:14;;;;;;;;;;;21.50;48.20;;;;;;5069308;28;1396;-63
2020/12/18 07:17:46;;;;;;;;;;;21.60;48.50;;;;;;5076095;28;1282;-64
2020/12/18 07:20:12;;;;;;;;;;;21.60;48.70;;;;;;5045437;28;1902;-64
2020/12/18 07:22:37;;;;;;;;;;;21.50;48.70;;;;;;5053892;28;1342;-65
2020/12/18 07:25:02;;;;;;;;;;;21.50;48.80;;;;;;5070551;28;1122;-64
2020/12/18 07:27:28;;;;;;;;;;;21.60;50.00;;;;;;5070739;28;1263;-65
2020/12/18 07:29:53;;;;;;;;;;;21.60;51.00;;;;;;5071769;28;1298;-65
2020/12/18 07:32:19;;;;;;;;;;;21.70;50.40;;;;;;5071520;28;1270;-65
2020/12/18 07:34:44;;;;;;;;;;;21.70;50.40;;;;;;5052465;28;1499;-65
2020/12/18 07:37:11;;;;;;;;;;;21.70;50.10;;;;;;5070510;28;1355;-65
2020/12/18 07:39:36;;;;;;;;;;;21.60;50.20;;;;;;5070025;28;1295;-64
2020/12/18 07:42:02;;;;;;;;;;;21.60;50.20;;;;;;5069742;28;1883;-65
2020/12/18 07:44:27;;;;;;;;;;;21.60;50.30;;;;;;5051354;28;1324;-65
2020/12/18 07:46:53;;;;;;;;;;;21.60;50.50;;;;;;5071032;28;1347;-66
2020/12/18 07:49:19;;;;;;;;;;;21.60;50.70;;;;;;5051808;28;1381;-65
2020/12/18 07:51:44;;;;;;;;;;;21.50;50.60;;;;;;5066212;28;1323;-64
2020/12/18 07:54:15;;;;;;;;;;;21.50;51.30;;;;;;5074286;28;1337;-64
2020/12/18 07:56:40;;;;;;;;;;;21.50;51.40;;;;;;5038141;28;1225;-65
2020/12/18 07:59:08;;;;;;;;;;;21.50;51.20;;;;;;5054535;28;1319;-66
2020/12/18 08:01:34;;;;;;;;;;;21.50;51.30;;;;;;5036557;28;1902;-67
2020/12/18 08:04:03;;;;;;;;;;;21.50;51.30;;;;;;5034972;28;1337;-67
2020/12/18 08:06:29;;;;;;;;;;;21.50;51.30;;;;;;5035403;28;1301;-67
2020/12/18 08:08:58;;;;;;;;;;;21.50;51.30;;;;;;5052569;28;1305;-66
2020/12/18 08:11:24;;;;;;;;;;;21.50;51.30;;;;;;5051741;28;1292;-67
2020/12/18 08:13:50;;;;;;;;;;;21.50;51.30;;;;;;5035096;28;1354;-66
2020/12/18 08:16:16;;;;;;;;;;;21.50;51.40;;;;;;5033550;28;1282;-66
2020/12/18 08:18:46;;;;;;;;;;;21.60;51.50;;;;;;5024725;28;1329;-67
2020/12/18 08:21:11;;;;;;;;;;;21.60;51.50;;;;;;5043402;28;1973;-67
2020/12/18 08:23:38;;;;;;;;;;;21.70;51.60;;;;;;5043453;28;1327;-68
2020/12/18 08:26:04;;;;;;;;;;;21.80;51.50;;;;;;5024770;28;1396;-67
2020/12/18 08:28:30;;;;;;;;;;;21.80;51.40;;;;;;5024103;28;1371;-66
2020/12/18 08:30:56;;;;;;;;;;;21.90;51.40;;;;;;5024871;28;1301;-67
2020/12/18 08:33:21;;;;;;;;;;;22.00;51.40;;;;;;5027643;28;1325;-66
2020/12/18 08:35:47;;;;;;;;;;;22.10;51.40;;;;;;5023492;28;1325;-66
2020/12/18 08:38:13;;;;;;;;;;;22.10;51.30;;;;;;5034997;28;1350;-67
2020/12/18 08:40:42;;;;;;;;;;;22.20;51.30;;;;;;5035018;28;1959;-67
2020/12/18 08:43:09;;;;;;;;;;;22.20;51.20;;;;;;5034860;28;1312;-67
2020/12/18 08:45:40;;;;;;;;;;;22.30;51.20;;;;;;5032839;28;1293;-68
2020/12/18 08:48:06;;;;;;;;;;;22.30;51.20;;;;;;5033076;28;1316;-67
2020/12/18 08:50:31;;;;;;;;;;;22.30;51.10;;;;;;5034381;28;1229;-66
2020/12/18 08:53:05;;;;;;;;;;;22.30;51.10;;;;;;5034614;28;1365;-67
2020/12/18 08:55:31;;;;;;;;;;;22.40;51.10;;;;;;5032609;28;1307;-67
2020/12/18 08:57:56;;;;;;;;;;;22.40;51.10;;;;;;5033195;28;1305;-67
2020/12/18 09:00:22;;;;;;;;;;;22.40;51.10;;;;;;5016500;28;1906;-67
2020/12/18 09:02:47;;;;;;;;;;;22.40;51.10;;;;;;5034428;28;1376;-66
2020/12/18 09:05:21;;;;;;;;;;;22.40;51.20;;;;;;5024492;28;1332;-65
2020/12/18 09:07:47;;;;;;;;;;;22.40;51.20;;;;;;5032602;28;1284;-66
2020/12/18 09:10:12;;;;;;;;;;;22.40;51.30;;;;;;5030924;28;1267;-66
2020/12/18 09:12:41;;;;;;;;;;;22.40;51.30;;;;;;5032645;28;1265;-67
2020/12/18 09:15:17;;;;;;;;;;;22.40;51.40;;;;;;5031324;28;1301;-66
2020/12/18 09:17:42;;;;;;;;;;;22.40;51.40;;;;;;5049818;28;1278;-66
2020/12/18 09:20:08;;;;;;;;;;;22.40;51.50;;;;;;5034770;28;1891;-66
2020/12/18 09:22:33;;;;;;;;;;;22.40;51.90;;;;;;5054549;28;1288;-65
2020/12/18 09:25:02;;;;;;;;;;;22.40;51.70;;;;;;5053149;28;1291;-66
2020/12/18 09:27:28;;;;;;;;;;;22.40;52.00;;;;;;5051697;28;1276;-66
2020/12/18 09:30:00;;;;;;;;;;;22.30;51.90;;;;;;5052133;28;1270;-66
2020/12/18 09:32:25;;;;;;;;;;;22.30;51.90;;;;;;5052925;28;1311;-65
2020/12/18 09:34:53;;;;;;;;;;;22.30;51.90;;;;;;5052115;28;1355;-65
2020/12/18 09:37:18;;;;;;;;;;;22.30;51.90;;;;;;5052650;28;1525;-66
2020/12/18 09:39:44;;;;;;;;;;;22.30;52.00;;;;;;5051987;28;1290;-66
2020/12/18 09:42:09;;;;;;;;;;;22.30;52.30;;;;;;5051607;28;1898;-66
2020/12/18 09:44:35;;;;;;;;;;;22.30;52.40;;;;;;5052675;28;1104;-66
2020/12/18 09:47:00;;;;;;;;;;;22.20;52.90;;;;;;5052993;28;1705;-65
2020/12/18 09:49:26;;;;;;;;;;;22.20;52.70;;;;;;5053049;28;1307;-65
2020/12/18 09:51:51;;;;;;;;;;;22.20;52.70;;;;;;5053516;28;1300;-66
2020/12/18 09:54:17;;;;;;;;;;;22.20;52.80;;;;;;5052490;28;1327;-66
2020/12/18 09:56:42;;;;;;;;;;;22.20;53.00;;;;;;5052463;28;1307;-64
2020/12/18 09:59:08;;;;;;;;;;;22.20;53.10;;;;;;5053272;28;1317;-66
2020/12/18 10:01:33;;;;;;;;;;;22.20;52.90;;;;;;5051776;28;1902;-66
2020/12/18 10:03:58;;;;;;;;;;;22.20;53.00;;;;;;5070718;28;1285;-66
2020/12/18 10:06:25;;;;;;;;;;;22.20;53.20;;;;;;5072631;28;1309;-67
2020/12/18 10:08:50;;;;;;;;;;;22.10;53.20;;;;;;5054909;28;1310;-65
2020/12/18 10:11:17;;;;;;;;;;;22.10;53.30;;;;;;5072789;28;1251;-67
2020/12/18 10:13:43;;;;;;;;;;;22.10;53.50;;;;;;5071050;28;1376;-66
2020/12/18 10:16:08;;;;;;;;;;;22.10;53.50;;;;;;5053829;28;1444;-66
2020/12/18 10:18:34;;;;;;;;;;;22.10;54.40;;;;;;5071448;28;1306;-67
2020/12/18 10:21:03;;;;;;;;;;;22.10;53.50;;;;;;5054417;28;1898;-66
2020/12/18 10:23:29;;;;;;;;;;;22.10;53.30;;;;;;5052574;28;1301;-66
2020/12/18 10:25:54;;;;;;;;;;;22.10;53.20;;;;;;5052486;28;1384;-67
2020/12/18 10:28:20;;;;;;;;;;;22.10;53.10;;;;;;5052152;28;1320;-66
2020/12/18 10:30:45;;;;;;;;;;;22.20;53.10;;;;;;5052697;28;1108;-66
2020/12/18 10:33:10;;;;;;;;;;;22.20;53.10;;;;;;5052818;28;1320;-66
2020/12/18 10:35:36;;;;;;;;;;;22.20;53.10;;;;;;5052012;28;1283;-66
2020/12/18 10:38:01;;;;;;;;;;;22.20;53.00;;;;;;5051774;28;1346;-67
2020/12/18 10:40:27;;;;;;;;;;;22.30;53.00;;;;;;5052490;28;1950;-66
2020/12/18 10:42:53;;;;;;;;;;;22.30;52.90;;;;;;5052458;28;1153;-67
2020/12/18 10:45:18;;;;;;;;;;;22.30;52.80;;;;;;5051908;28;1475;-67
2020/12/18 10:47:44;;;;;;;;;;;22.30;52.80;;;;;;5050965;28;1292;-67
2020/12/18 10:50:09;;;;;;;;;;;22.30;52.70;;;;;;5051114;28;1300;-66
2020/12/18 10:52:35;;;;;;;;;;;22.40;52.70;;;;;;5052445;28;1352;-64
2020/12/18 10:55:00;;;;;;;;;;;22.40;52.60;;;;;;5051774;28;1070;-66
2020/12/18 10:57:26;;;;;;;;;;;22.40;52.60;;;;;;5052170;28;1363;-66
2020/12/18 10:59:51;;;;;;;;;;;22.40;52.90;;;;;;5052284;28;1345;-66
2020/12/18 11:02:17;;;;;;;;;;;22.40;52.80;;;;;;5052118;28;1906;-66
2020/12/18 11:04:42;;;;;;;;;;;22.50;52.80;;;;;;5051950;28;1272;-67
2020/12/18 11:07:08;;;;;;;;;;;22.40;52.80;;;;;;5051888;28;1268;-65
2020/12/18 11:09:35;;;;;;;;;;;22.40;52.80;;;;;;5035002;28;1302;-66
2020/12/18 11:12:01;;;;;;;;;;;22.50;52.80;;;;;;5051203;28;1372;-66
2020/12/18 11:14:27;;;;;;;;;;;22.40;52.80;;;;;;5046202;28;1637;-66
2020/12/18 11:16:55;;;;;;;;;;;22.50;52.90;;;;;;5051570;28;1342;-66
2020/12/18 11:19:24;;;;;;;;;;;22.40;52.90;;;;;;5052068;28;1371;-65
2020/12/18 11:21:49;;;;;;;;;;;22.40;53.00;;;;;;5035076;28;1977;-64
2020/12/18 11:24:15;;;;;;;;;;;22.40;52.90;;;;;;5054850;28;1410;-66
2020/12/18 11:26:40;;;;;;;;;;;22.40;53.10;;;;;;5042636;28;1437;-62
2020/12/18 11:29:06;;;;;;;;;;;22.40;53.20;;;;;;5053313;28;1036;-66
2020/12/18 11:31:31;;;;;;;;;;;22.40;53.00;;;;;;5070275;28;1305;-64
2020/12/18 11:33:57;;;;;;;;;;;22.40;53.10;;;;;;5075550;28;1370;-66
2020/12/18 11:36:22;;;;;;;;;;;22.40;53.20;;;;;;5075550;28;1358;-64
2020/12/18 11:38:48;;;;;;;;;;;22.40;53.50;;;;;;5075370;28;1369;-66
2020/12/18 11:41:17;;;;;;;;;;;22.40;53.30;;;;;;5073893;28;1878;-65
2020/12/18 11:43:43;;;;;;;;;;;22.40;53.30;;;;;;5072659;28;1278;-65
2020/12/18 11:46:08;;;;;;;;;;;22.40;53.20;;;;;;5073260;28;1377;-65
2020/12/18 11:48:34;;;;;;;;;;;22.40;53.20;;;;;;5073157;28;1327;-66
2020/12/18 11:50:59;;;;;;;;;;;22.40;53.30;;;;;;5052677;28;1370;-64
2020/12/18 11:53:25;;;;;;;;;;;22.40;53.30;;;;;;5064130;28;1127;-65
2020/12/18 11:55:50;;;;;;;;;;;22.40;53.30;;;;;;5060803;28;1287;-64
2020/12/18 11:58:16;;;;;;;;;;;22.40;53.20;;;;;;5053224;28;1315;-64
2020/12/18 12:00:42;;;;;;;;;;;22.40;53.40;;;;;;5057471;28;1925;-64
2020/12/18 12:03:08;;;;;;;;;;;22.40;53.50;;;;;;5071612;28;1048;-65
2020/12/18 12:05:35;;;;;;;;;;;22.40;53.50;;;;;;5054155;28;1279;-64
2020/12/18 12:08:00;;;;;;;;;;;22.40;53.40;;;;;;5072782;28;1298;-65
2020/12/18 12:10:27;;;;;;;;;;;22.40;53.40;;;;;;5072693;28;1373;-65
2020/12/18 12:12:52;;;;;;;;;;;22.40;53.50;;;;;;5071841;28;1260;-66
2020/12/18 12:15:18;;;;;;;;;;;22.40;53.50;;;;;;5072401;28;1251;-65
2020/12/18 12:17:44;;;;;;;;;;;22.40;53.80;;;;;;5066595;28;1258;-64
2020/12/18 12:20:09;;;;;;;;;;;22.40;53.90;;;;;;5063070;28;1284;-65
2020/12/18 12:22:34;;;;;;;;;;;22.40;53.90;;;;;;5035678;28;1910;-65
2020/12/18 12:25:00;;;;;;;;;;;22.30;53.80;;;;;;5052935;28;1283;-67
2020/12/18 12:27:26;;;;;;;;;;;22.30;54.00;;;;;;5033996;28;1348;-67
2020/12/18 12:29:52;;;;;;;;;;;22.30;54.20;;;;;;5017869;28;1358;-66
2020/12/18 12:32:17;;;;;;;;;;;22.30;54.30;;;;;;5051454;28;1064;-68
2020/12/18 12:34:43;;;;;;;;;;;22.30;54.40;;;;;;5049546;28;1329;-64
2020/12/18 12:37:08;;;;;;;;;;;22.30;54.80;;;;;;5073292;28;1293;-65
2020/12/18 12:39:34;;;;;;;;;;;22.30;54.90;;;;;;5073288;28;1319;-64
2020/12/18 12:42:02;;;;;;;;;;;22.30;55.20;;;;;;5055323;28;1957;-65
2020/12/18 12:44:28;;;;;;;;;;;22.30;55.30;;;;;;5071518;28;1369;-63
2020/12/18 12:46:53;;;;;;;;;;;22.30;55.80;;;;;;5053892;28;1444;-65
2020/12/18 12:49:19;;;;;;;;;;;22.30;55.60;;;;;;5049205;28;1394;-63
2020/12/18 12:51:44;;;;;;;;;;;22.20;55.30;;;;;;5051575;28;1268;-65
2020/12/18 12:54:10;;;;;;;;;;;22.20;55.30;;;;;;5017258;28;1426;-66
2020/12/18 12:56:35;;;;;;;;;;;22.20;55.20;;;;;;5044498;28;1375;-67
2020/12/18 12:59:01;;;;;;;;;;;22.20;55.20;;;;;;5073013;28;1306;-68
2020/12/18 13:01:30;;;;;;;;;;;22.20;55.20;;;;;;5059387;28;1961;-67
2020/12/18 13:03:56;;;;;;;;;;;22.20;55.10;;;;;;5049025;28;1277;-68
2020/12/18 13:06:22;;;;;;;;;;;22.20;51.80;;;;;;5052824;28;1315;-67
2020/12/18 13:08:47;;;;;;;;;;;22.10;48.60;;;;;;5054429;28;1404;-66
2020/12/18 13:11:13;;;;;;;;;;;22.00;48.00;;;;;;5067527;28;1234;-67
2020/12/18 13:13:38;;;;;;;;;;;21.90;47.30;;;;;;5056045;28;1295;-67
2020/12/18 13:16:04;;;;;;;;;;;21.80;46.70;;;;;;5072308;28;1287;-67
2020/12/18 13:18:29;;;;;;;;;;;21.70;46.10;;;;;;5053551;28;1251;-68
2020/12/18 13:20:54;;;;;;;;;;;21.70;46.40;;;;;;5051278;28;1910;-68
2020/12/18 13:23:20;;;;;;;;;;;21.60;45.60;;;;;;5052323;28;1204;-67
2020/12/18 13:25:45;;;;;;;;;;;21.60;45.50;;;;;;5050997;28;1303;-68
2020/12/18 13:28:11;;;;;;;;;;;21.50;44.50;;;;;;5052469;28;1332;-67
2020/12/18 13:30:39;;;;;;;;;;;21.50;44.70;;;;;;5052884;28;1310;-67
2020/12/18 13:33:05;;;;;;;;;;;21.40;44.90;;;;;;5047591;28;1867;-68
2020/12/18 13:35:31;;;;;;;;;;;21.40;45.00;;;;;;5047323;28;1572;-68
2020/12/18 13:37:56;;;;;;;;;;;21.30;44.40;;;;;;5061436;28;1292;-67
2020/12/18 13:40:22;;;;;;;;;;;21.30;44.70;;;;;;5052302;28;1959;-67
2020/12/18 13:42:47;;;;;;;;;;;21.20;44.50;;;;;;5052439;28;1300;-66
2020/12/18 13:45:13;;;;;;;;;;;21.20;44.30;;;;;;5051983;28;1194;-67
2020/12/18 13:47:40;;;;;;;;;;;21.20;44.00;;;;;;5051221;28;1350;-67
2020/12/18 13:50:06;;;;;;;;;;;21.10;43.90;;;;;;5050836;28;1241;-66
2020/12/18 13:52:32;;;;;;;;;;;21.10;43.70;;;;;;5050964;28;1361;-67
2020/12/18 13:54:57;;;;;;;;;;;21.10;43.90;;;;;;5050351;28;1289;-65
2020/12/18 13:57:23;;;;;;;;;;;21.10;43.60;;;;;;5039632;28;1408;-66
2020/12/18 13:59:48;;;;;;;;;;;21.10;43.60;;;;;;5060429;28;953;-65
2020/12/18 14:02:14;;;;;;;;;;;21.00;43.20;;;;;;5054617;28;1910;-65
2020/12/18 14:04:39;;;;;;;;;;;21.00;43.10;;;;;;5050387;28;1299;-65
2020/12/18 14:07:05;;;;;;;;;;;21.00;42.90;;;;;;5043351;28;1943;-67
2020/12/18 14:09:31;;;;;;;;;;;21.00;42.90;;;;;;5050155;28;1113;-68
2020/12/18 14:11:56;;;;;;;;;;;20.90;42.90;;;;;;5050035;28;1279;-68
2020/12/18 14:14:22;;;;;;;;;;;20.90;42.70;;;;;;5049859;28;1261;-68
2020/12/18 14:16:47;;;;;;;;;;;20.90;42.60;;;;;;5049018;28;1347;-65
2020/12/18 14:19:12;;;;;;;;;;;20.90;42.70;;;;;;5013328;28;1925;-66
2020/12/18 14:21:39;;;;;;;;;;;20.80;42.50;;;;;;5011649;28;1914;-69
2020/12/18 14:24:04;;;;;;;;;;;20.80;42.60;;;;;;5026526;28;1295;-67
2020/12/18 14:26:30;;;;;;;;;;;20.80;42.60;;;;;;5019145;28;1288;-69